createdAt,value
2018-03-20T00:01:10.887Z,19.30
2018-03-20T00:02:42.817Z,17.30
2018-03-20T00:04:14.523Z,20.90
2018-03-20T00:05:46.340Z,18.40
2018-03-20T00:07:18.157Z,19.40
2018-03-20T00:08:50.077Z,21.70
2018-03-20T00:10:21.792Z,20.90
2018-03-20T00:11:53.609Z,20.20
2018-03-20T00:13:25.427Z,23.50
2018-03-20T00:14:57.246Z,20.70
2018-03-20T00:16:29.062Z,20.60
2018-03-20T00:18:00.885Z,20.20
2018-03-20T00:19:32.700Z,18.60
2018-03-20T00:21:04.516Z,19.50
2018-03-20T00:22:36.334Z,17.00
2018-03-20T00:24:08.152Z,18.00
2018-03-20T00:25:39.970Z,18.40
2018-03-20T00:27:11.886Z,16.80
2018-03-20T00:28:43.604Z,20.70
2018-03-20T00:30:15.421Z,17.40
2018-03-20T00:31:47.239Z,19.70
2018-03-20T00:33:19.056Z,19.30
2018-03-20T00:34:50.882Z,18.40
2018-03-20T00:36:22.692Z,19.20
2018-03-20T00:37:54.510Z,19.70
2018-03-20T00:39:26.328Z,20.00
2018-03-20T00:40:58.146Z,22.40
2018-03-20T00:42:29.963Z,20.60
2018-03-20T00:44:01.785Z,21.80
2018-03-20T00:45:34.699Z,22.00
2018-03-20T00:47:05.415Z,23.00
2018-03-20T00:48:37.232Z,24.20
2018-03-20T00:50:09.050Z,21.90
2018-03-20T00:51:40.867Z,21.00
2018-03-20T00:53:12.686Z,19.80
2018-03-20T00:54:44.502Z,18.30
2018-03-20T00:56:16.320Z,19.10
2018-03-20T00:57:48.139Z,19.30
2018-03-20T00:59:19.957Z,21.20
2018-03-20T01:00:51.775Z,20.40
2018-03-20T01:02:23.591Z,21.20
2018-03-20T01:03:55.529Z,21.60
2018-03-20T01:05:27.225Z,17.90
2018-03-20T01:06:59.047Z,19.80
2018-03-20T01:08:30.860Z,19.50
2018-03-20T01:10:02.679Z,18.20
2018-03-20T01:11:34.496Z,19.10
2018-03-20T01:13:06.315Z,19.10
2018-03-20T01:14:38.133Z,16.80
2018-03-20T01:16:09.951Z,17.50
2018-03-20T01:17:41.770Z,16.60
2018-03-20T01:19:13.584Z,16.30
2018-03-20T01:20:45.414Z,17.60
2018-03-20T01:22:17.485Z,16.50
2018-03-20T01:23:49.039Z,18.70
2018-03-20T01:25:20.864Z,16.20
2018-03-20T01:26:52.688Z,16.80
2018-03-20T01:28:24.498Z,18.20
2018-03-20T01:29:56.312Z,17.60
2018-03-20T01:31:28.130Z,19.30
2018-03-20T01:32:59.951Z,22.30
2018-03-20T01:34:31.768Z,19.40
2018-03-20T01:36:03.587Z,18.80
2018-03-20T01:37:35.424Z,21.70
2018-03-20T01:39:07.220Z,21.20
2018-03-20T01:40:39.145Z,20.30
2018-03-20T01:42:10.858Z,18.40
2018-03-20T01:43:42.676Z,20.30
2018-03-20T01:45:14.499Z,18.80
2018-03-20T01:46:46.313Z,19.90
2018-03-20T01:48:18.133Z,21.30
2018-03-20T01:49:49.950Z,20.30
2018-03-20T01:51:21.785Z,21.20
2018-03-20T01:52:53.717Z,20.20
2018-03-20T01:54:25.457Z,19.90
2018-03-20T01:55:57.223Z,22.20
2018-03-20T01:57:29.051Z,20.70
2018-03-20T01:59:01.366Z,18.00
2018-03-20T02:00:32.679Z,17.80
2018-03-20T02:02:04.496Z,19.40
2018-03-20T02:03:36.318Z,17.20
2018-03-20T02:05:08.134Z,18.00
2018-03-20T02:06:39.953Z,19.20
2018-03-20T02:08:11.770Z,17.90
2018-03-20T02:09:43.588Z,18.60
2018-03-20T02:11:15.407Z,21.30
2018-03-20T02:12:47.256Z,20.50
2018-03-20T02:14:19.074Z,22.40
2018-03-20T02:15:50.863Z,23.10
2018-03-20T02:17:22.815Z,22.70
2018-03-20T02:18:54.500Z,22.80
2018-03-20T02:20:26.318Z,23.80
2018-03-20T02:21:58.137Z,23.70
2018-03-20T02:23:30.055Z,24.40
2018-03-20T02:25:01.775Z,23.90
2018-03-20T02:26:33.625Z,28.40
2018-03-20T02:28:05.410Z,23.20
2018-03-20T02:29:37.381Z,22.60
2018-03-20T02:31:09.050Z,24.40
2018-03-20T02:32:40.865Z,23.90
2018-03-20T02:34:12.697Z,22.40
2018-03-20T02:35:44.602Z,27.20
2018-03-20T02:37:16.322Z,23.60
2018-03-20T02:38:48.139Z,22.30
2018-03-20T02:40:19.956Z,27.00
2018-03-20T02:41:51.773Z,25.70
2018-03-20T02:43:23.592Z,23.50
2018-03-20T02:44:55.411Z,22.60
2018-03-20T02:46:27.228Z,21.80
2018-03-20T02:47:59.046Z,19.70
2018-03-20T02:49:30.865Z,20.80
2018-03-20T02:51:02.736Z,18.20
2018-03-20T02:52:34.510Z,21.50
2018-03-20T02:54:06.418Z,20.90
2018-03-20T02:55:38.137Z,22.50
2018-03-20T02:57:09.956Z,22.00
2018-03-20T02:58:41.773Z,20.30
2018-03-20T03:00:13.591Z,19.30
2018-03-20T03:01:45.411Z,18.10
2018-03-20T03:03:17.232Z,16.90
2018-03-20T03:04:49.047Z,15.10
2018-03-20T03:06:20.864Z,13.10
2018-03-20T03:07:52.682Z,14.00
2018-03-20T03:09:24.506Z,11.80
2018-03-20T03:10:56.319Z,12.20
2018-03-20T03:12:28.235Z,13.50
2018-03-20T03:13:59.955Z,15.50
2018-03-20T03:15:31.773Z,11.60
2018-03-20T03:17:03.590Z,13.00
2018-03-20T03:18:35.410Z,11.60
2018-03-20T03:20:07.227Z,10.30
2018-03-20T03:21:39.045Z,10.50
2018-03-20T03:23:10.863Z,10.80
2018-03-20T03:24:42.681Z,10.70
2018-03-20T03:26:14.501Z,10.40
2018-03-20T03:27:46.319Z,11.60
2018-03-20T03:29:18.137Z,11.00
2018-03-20T03:30:50.056Z,10.30
2018-03-20T03:32:21.773Z,11.20
2018-03-20T03:33:53.591Z,11.80
2018-03-20T03:35:25.410Z,10.90
2018-03-20T03:36:57.228Z,11.30
2018-03-20T03:38:29.048Z,9.70
2018-03-20T03:40:00.866Z,11.40
2018-03-20T03:41:32.684Z,10.80
2018-03-20T03:43:04.501Z,9.50
2018-03-20T03:44:36.321Z,12.60
2018-03-20T03:46:08.140Z,11.10
2018-03-20T03:47:39.958Z,11.60
2018-03-20T03:49:11.876Z,11.90
2018-03-20T03:50:43.593Z,11.50
2018-03-20T03:52:15.412Z,11.50
2018-03-20T03:53:47.231Z,11.10
2018-03-20T03:55:19.201Z,12.10
2018-03-20T03:56:50.869Z,11.40
2018-03-20T03:58:22.689Z,11.80
2018-03-20T03:59:54.505Z,12.00
2018-03-20T04:01:26.466Z,11.10
2018-03-20T04:02:58.142Z,11.50
2018-03-20T04:04:29.962Z,11.90
2018-03-20T04:06:01.779Z,13.90
2018-03-20T04:07:33.698Z,12.90
2018-03-20T04:09:05.416Z,11.20
2018-03-20T04:10:37.236Z,11.20
2018-03-20T04:12:09.053Z,12.00
2018-03-20T04:13:40.871Z,11.90
2018-03-20T04:15:12.690Z,12.00
2018-03-20T04:16:44.508Z,12.10
2018-03-20T04:18:16.327Z,12.40
2018-03-20T04:19:48.394Z,12.10
2018-03-20T04:21:19.963Z,11.40
2018-03-20T04:22:51.780Z,12.60
2018-03-20T04:24:23.598Z,11.70
2018-03-20T04:25:55.617Z,12.00
2018-03-20T04:27:27.234Z,12.70
2018-03-20T04:28:59.052Z,14.20
2018-03-20T04:30:30.871Z,12.40
2018-03-20T04:32:02.687Z,12.20
2018-03-20T04:33:34.507Z,12.90
2018-03-20T04:35:06.323Z,10.70
2018-03-20T04:36:38.140Z,12.70
2018-03-20T04:38:09.962Z,11.50
2018-03-20T04:39:41.776Z,11.10
2018-03-20T04:41:13.595Z,11.30
2018-03-20T04:42:45.413Z,12.40
2018-03-20T04:44:17.332Z,10.50
2018-03-20T04:45:49.049Z,10.70
2018-03-20T04:47:20.867Z,10.60
2018-03-20T04:48:52.686Z,11.60
2018-03-20T04:50:24.603Z,10.10
2018-03-20T04:51:56.322Z,10.30
2018-03-20T04:53:28.140Z,12.50
2018-03-20T04:54:59.958Z,10.50
2018-03-20T04:56:31.780Z,10.10
2018-03-20T04:58:03.594Z,12.90
2018-03-20T04:59:35.412Z,10.80
2018-03-20T05:01:07.232Z,10.20
2018-03-20T05:02:39.149Z,12.20
2018-03-20T05:04:10.867Z,11.40
2018-03-20T05:05:42.685Z,11.30
2018-03-20T05:07:14.508Z,13.10
2018-03-20T05:08:46.322Z,12.40
2018-03-20T05:10:18.141Z,13.00
2018-03-20T05:11:49.958Z,12.80
2018-03-20T05:13:21.778Z,13.10
2018-03-20T05:14:53.596Z,12.00
2018-03-20T05:16:25.414Z,12.70
2018-03-20T05:17:57.232Z,13.60
2018-03-20T05:19:29.050Z,13.00
2018-03-20T05:21:01.068Z,14.20
2018-03-20T05:22:32.688Z,13.80
2018-03-20T05:24:04.505Z,14.10
2018-03-20T05:25:36.323Z,13.30
2018-03-20T05:27:08.292Z,13.40
2018-03-20T05:28:39.966Z,13.30
2018-03-20T05:30:11.821Z,14.60
2018-03-20T05:31:43.595Z,14.20
2018-03-20T05:33:15.414Z,14.30
2018-03-20T05:34:47.232Z,17.00
2018-03-20T05:36:19.050Z,15.50
2018-03-20T05:37:50.869Z,15.40
2018-03-20T05:39:22.887Z,17.10
2018-03-20T05:40:54.504Z,18.00
2018-03-20T05:42:26.325Z,15.40
2018-03-20T05:43:58.140Z,16.50
2018-03-20T05:45:29.958Z,16.90
2018-03-20T05:47:01.776Z,19.00
2018-03-20T05:48:33.596Z,17.60
2018-03-20T05:50:05.417Z,19.30
2018-03-20T05:51:37.230Z,20.50
2018-03-20T05:53:09.052Z,18.10
2018-03-20T05:54:40.865Z,18.10
2018-03-20T05:56:12.684Z,20.40
2018-03-20T05:57:44.703Z,18.20
2018-03-20T05:59:16.319Z,20.20
2018-03-20T06:00:48.137Z,20.40
2018-03-20T06:02:19.955Z,20.20
2018-03-20T06:03:51.774Z,26.90
2018-03-20T06:05:23.591Z,21.70
2018-03-20T06:06:55.411Z,29.00
2018-03-20T06:08:27.226Z,26.10
2018-03-20T06:09:59.195Z,29.50
2018-03-20T06:11:30.863Z,29.80
2018-03-20T06:13:02.681Z,27.10
2018-03-20T06:14:34.504Z,27.60
2018-03-20T06:16:06.417Z,28.80
2018-03-20T06:17:38.133Z,25.50
2018-03-20T06:19:09.951Z,27.10
2018-03-20T06:20:41.772Z,33.80
2018-03-20T06:22:13.587Z,29.80
2018-03-20T06:23:45.406Z,28.60
2018-03-20T06:25:17.223Z,28.90
2018-03-20T06:26:49.042Z,29.80
2018-03-20T06:28:20.981Z,36.10
2018-03-20T06:29:52.676Z,34.60
2018-03-20T06:31:24.498Z,39.80
2018-03-20T06:32:56.313Z,31.10
2018-03-20T06:34:28.231Z,31.50
2018-03-20T06:35:59.949Z,38.20
2018-03-20T06:37:31.765Z,31.30
2018-03-20T06:39:03.584Z,28.90
2018-03-20T06:40:35.403Z,29.10
2018-03-20T06:42:07.220Z,25.20
2018-03-20T06:43:39.037Z,22.80
2018-03-20T06:45:10.855Z,27.40
2018-03-20T06:46:42.672Z,24.20
2018-03-20T06:48:14.490Z,31.00
2018-03-20T06:49:46.308Z,33.50
2018-03-20T06:51:18.127Z,38.10
2018-03-20T06:52:50.047Z,28.40
2018-03-20T06:54:21.761Z,27.80
2018-03-20T06:55:53.580Z,25.30
2018-03-20T06:57:25.397Z,22.90
2018-03-20T06:58:57.216Z,22.70
2018-03-20T07:00:29.033Z,21.30
2018-03-20T07:02:00.852Z,18.90
2018-03-20T07:03:32.670Z,20.80
2018-03-20T07:05:04.639Z,24.10
2018-03-20T07:06:36.306Z,20.80
2018-03-20T07:08:08.125Z,20.80
2018-03-20T07:09:39.943Z,23.60
2018-03-20T07:11:11.861Z,23.00
2018-03-20T07:12:43.580Z,25.30
2018-03-20T07:14:15.399Z,24.10
2018-03-20T07:15:47.217Z,25.50
2018-03-20T07:17:19.034Z,28.30
2018-03-20T07:18:50.853Z,22.40
2018-03-20T07:20:22.672Z,24.80
2018-03-20T07:21:54.489Z,24.80
2018-03-20T07:23:26.308Z,24.50
2018-03-20T07:24:58.124Z,25.00
2018-03-20T07:26:29.943Z,27.10
2018-03-20T07:28:01.761Z,22.70
2018-03-20T07:29:33.880Z,22.20
2018-03-20T07:31:05.397Z,24.50
2018-03-20T07:32:37.215Z,22.00
2018-03-20T07:34:09.042Z,23.00
2018-03-20T07:35:40.952Z,23.00
2018-03-20T07:37:12.670Z,23.70
2018-03-20T07:38:44.488Z,21.80
2018-03-20T07:40:16.306Z,21.50
2018-03-20T07:41:48.124Z,21.60
2018-03-20T07:43:19.944Z,21.90
2018-03-20T07:44:51.760Z,21.00
2018-03-20T07:46:23.580Z,23.10
2018-03-20T07:47:55.498Z,21.70
2018-03-20T07:49:27.216Z,23.00
2018-03-20T07:50:59.033Z,21.00
2018-03-20T07:52:30.851Z,21.50
2018-03-20T07:54:02.669Z,21.50
2018-03-20T07:55:34.489Z,18.90
2018-03-20T07:57:06.306Z,23.60
2018-03-20T07:58:38.124Z,19.40
2018-03-20T08:00:10.093Z,19.30
2018-03-20T08:01:41.771Z,21.90
2018-03-20T08:03:13.578Z,21.50
2018-03-20T08:04:45.398Z,20.60
2018-03-20T08:06:17.416Z,26.10
2018-03-20T08:07:49.086Z,33.70
2018-03-20T08:09:20.852Z,30.90
2018-03-20T08:10:52.671Z,30.20
2018-03-20T08:12:24.489Z,29.70
2018-03-20T08:13:56.307Z,30.10
2018-03-20T08:15:28.125Z,26.30
2018-03-20T08:16:59.944Z,27.40
2018-03-20T08:18:31.764Z,25.90
2018-03-20T08:20:03.581Z,24.70
2018-03-20T08:21:35.399Z,23.40
2018-03-20T08:23:07.219Z,24.40
2018-03-20T08:24:39.438Z,25.20
2018-03-20T08:26:10.854Z,21.50
2018-03-20T08:27:42.678Z,23.20
2018-03-20T08:29:14.497Z,27.70
2018-03-20T08:30:46.460Z,26.80
2018-03-20T08:32:18.128Z,30.00
2018-03-20T08:33:49.947Z,23.40
2018-03-20T08:35:21.765Z,26.70
2018-03-20T08:36:53.583Z,27.80
2018-03-20T08:38:25.404Z,27.50
2018-03-20T08:39:57.224Z,27.10
2018-03-20T08:41:29.040Z,23.20
2018-03-20T08:43:00.958Z,23.20
2018-03-20T08:44:32.675Z,23.00
2018-03-20T08:46:04.495Z,26.90
2018-03-20T08:47:36.313Z,23.80
2018-03-20T08:49:08.130Z,27.00
2018-03-20T08:50:39.949Z,24.70
2018-03-20T08:52:11.767Z,26.90
2018-03-20T08:53:43.585Z,25.40
2018-03-20T08:55:15.506Z,36.90
2018-03-20T08:56:47.224Z,35.40
2018-03-20T08:58:19.041Z,36.10
2018-03-20T08:59:50.864Z,38.10
2018-03-20T09:01:22.878Z,40.70
2018-03-20T09:02:54.496Z,35.10
2018-03-20T09:04:26.315Z,37.10
2018-03-20T09:05:58.133Z,41.40
2018-03-20T09:07:29.951Z,41.50
2018-03-20T09:09:01.768Z,35.10
2018-03-20T09:10:33.591Z,36.80
2018-03-20T09:12:05.406Z,32.70
2018-03-20T09:13:37.231Z,36.80
2018-03-20T09:15:09.042Z,38.10
2018-03-20T09:16:40.862Z,30.40
2018-03-20T09:18:12.679Z,36.40
2018-03-20T09:19:45.054Z,36.00
2018-03-20T09:21:16.315Z,31.40
2018-03-20T09:22:48.141Z,33.10
2018-03-20T09:24:19.952Z,32.30
2018-03-20T09:25:52.022Z,35.10
2018-03-20T09:27:23.590Z,35.20
2018-03-20T09:28:55.408Z,34.70
2018-03-20T09:30:27.227Z,31.30
2018-03-20T09:31:59.144Z,28.50
2018-03-20T09:33:30.865Z,31.40
2018-03-20T09:35:02.682Z,29.80
2018-03-20T09:36:34.500Z,30.80
2018-03-20T09:38:06.425Z,24.60
2018-03-20T09:39:38.145Z,29.00
2018-03-20T09:41:09.956Z,27.70
2018-03-20T09:42:41.775Z,29.90
2018-03-20T09:44:13.594Z,27.80
2018-03-20T09:45:45.414Z,26.10
2018-03-20T09:47:17.231Z,26.90
2018-03-20T09:48:49.079Z,27.30
2018-03-20T09:50:20.942Z,28.40
2018-03-20T09:51:52.692Z,27.30
2018-03-20T09:53:24.508Z,24.40
2018-03-20T09:54:56.328Z,25.60
2018-03-20T09:56:28.247Z,25.70
2018-03-20T09:57:59.968Z,24.20
2018-03-20T09:59:31.785Z,27.90
2018-03-20T10:01:03.605Z,22.70
2018-03-20T10:04:07.347Z,25.00
2018-03-20T10:05:39.064Z,26.10
2018-03-20T10:07:10.884Z,27.10
2018-03-20T10:08:42.702Z,26.80
2018-03-20T10:10:14.521Z,26.20
2018-03-20T10:11:46.340Z,25.80
2018-03-20T10:13:18.161Z,24.30
2018-03-20T10:14:49.982Z,22.10
2018-03-20T10:16:21.902Z,24.80
2018-03-20T10:17:53.622Z,24.60
2018-03-20T10:20:57.262Z,23.00
2018-03-20T10:22:29.084Z,24.60
2018-03-20T10:24:00.902Z,24.30
2018-03-20T10:25:32.724Z,23.30
2018-03-20T10:27:04.543Z,23.80
2018-03-20T10:28:36.364Z,21.30
2018-03-20T10:30:08.190Z,21.90
2018-03-20T10:31:40.006Z,21.20
2018-03-20T10:33:11.826Z,21.30
2018-03-20T10:34:43.897Z,21.50
2018-03-20T10:37:47.291Z,20.30
2018-03-20T10:39:19.415Z,21.10
2018-03-20T10:40:50.936Z,20.00
2018-03-20T10:42:22.759Z,19.90
2018-03-20T10:43:55.445Z,17.90
2018-03-20T10:45:26.402Z,19.00
2018-03-20T10:46:58.226Z,17.30
2018-03-20T10:48:30.047Z,17.40
2018-03-20T10:50:01.872Z,16.00
2018-03-20T10:51:33.729Z,15.10
2018-03-20T10:53:05.617Z,15.70
2018-03-20T10:54:37.369Z,14.70
2018-03-20T10:56:09.470Z,15.20
2018-03-20T10:57:40.989Z,15.60
2018-03-20T10:59:12.814Z,15.60
2018-03-20T11:00:44.639Z,14.50
2018-03-20T11:02:16.462Z,15.00
2018-03-20T11:03:48.291Z,15.80
2018-03-20T11:05:20.114Z,15.70
2018-03-20T11:06:51.954Z,15.60
2018-03-20T11:08:23.966Z,16.10
2018-03-20T11:11:27.872Z,16.60
2018-03-20T11:12:59.239Z,13.40
2018-03-20T11:14:31.059Z,13.60
2018-03-20T11:16:02.886Z,14.20
2018-03-20T11:17:34.766Z,14.30
2018-03-20T11:19:06.538Z,10.70
2018-03-20T11:20:38.988Z,12.00
2018-03-20T11:22:10.179Z,11.50
2018-03-20T11:23:42.315Z,12.30
2018-03-20T11:26:45.651Z,11.60
2018-03-20T11:29:49.560Z,11.80
2018-03-20T11:31:21.174Z,11.20
2018-03-20T11:32:52.946Z,11.90
2018-03-20T11:34:24.769Z,10.20
2018-03-20T11:35:57.323Z,10.20
2018-03-20T11:37:28.416Z,9.00
2018-03-20T11:39:00.240Z,8.90
2018-03-20T11:42:04.094Z,9.00
2018-03-20T11:43:35.712Z,9.30
2018-03-20T11:45:07.537Z,9.30
2018-03-20T11:46:39.869Z,8.70
2018-03-20T11:48:11.287Z,9.10
2018-03-20T11:49:43.215Z,9.00
2018-03-20T11:51:14.873Z,9.00
2018-03-20T11:54:18.995Z,9.30
2018-03-20T11:55:51.250Z,9.20
2018-03-20T11:57:22.139Z,9.20
2018-03-20T12:00:25.788Z,9.20
2018-03-20T12:01:57.659Z,9.50
2018-03-20T12:05:01.265Z,10.90
2018-03-20T12:06:33.492Z,11.70
2018-03-20T12:08:04.913Z,10.50
2018-03-20T12:09:36.739Z,10.80
2018-03-20T12:11:08.563Z,11.70
2018-03-20T12:12:40.394Z,10.90
2018-03-20T12:14:12.515Z,12.40
2018-03-20T12:15:44.037Z,12.50
2018-03-20T12:17:16.064Z,11.10
2018-03-20T12:18:47.988Z,11.40
2018-03-20T12:23:23.354Z,12.30
2018-03-20T12:24:55.190Z,11.70
2018-03-20T12:26:27.324Z,11.50
2018-03-20T12:27:58.618Z,11.70
2018-03-20T12:29:30.442Z,11.70
2018-03-20T12:31:02.543Z,11.00
2018-03-20T12:34:06.236Z,11.10
2018-03-20T12:38:41.442Z,11.20
2018-03-20T12:40:13.200Z,11.60
2018-03-20T12:43:16.852Z,12.60
2018-03-20T12:44:48.879Z,13.20
2018-03-20T12:46:21.728Z,13.80
2018-03-20T12:47:52.317Z,13.40
2018-03-20T12:49:24.138Z,13.30
2018-03-20T12:50:55.962Z,13.50
2018-03-20T12:52:28.023Z,12.50
2018-03-20T12:53:59.609Z,13.10
2018-03-20T12:55:31.440Z,12.20
2018-03-20T12:57:03.561Z,12.00
2018-03-20T12:58:35.085Z,12.80
2018-03-20T13:00:06.963Z,11.80
2018-03-20T13:01:39.681Z,14.00
2018-03-20T13:03:10.953Z,14.00
2018-03-20T13:04:42.411Z,13.40
2018-03-20T13:06:14.202Z,14.00
2018-03-20T13:09:17.842Z,14.70
2018-03-20T13:10:49.666Z,16.70
2018-03-20T13:12:21.490Z,15.00
2018-03-20T13:13:53.314Z,16.20
2018-03-20T13:15:25.137Z,14.10
2018-03-20T13:18:28.786Z,15.20
2018-03-20T13:20:01.352Z,15.20
2018-03-20T13:21:32.588Z,15.30
2018-03-20T13:23:04.260Z,15.80
2018-03-20T13:24:36.081Z,15.40
2018-03-20T13:26:07.903Z,16.60
2018-03-20T13:27:39.726Z,16.70
2018-03-20T13:29:11.754Z,16.00
2018-03-20T13:30:43.374Z,17.20
2018-03-20T13:32:15.230Z,18.40
2018-03-20T13:33:47.240Z,16.30
2018-03-20T13:35:18.850Z,16.50
2018-03-20T13:36:50.675Z,15.70
2018-03-20T13:39:55.053Z,13.50
2018-03-20T13:41:26.150Z,15.00
2018-03-20T13:42:57.976Z,15.00
2018-03-20T13:44:29.808Z,14.50
2018-03-20T13:46:01.728Z,14.90
2018-03-20T13:47:33.672Z,14.50
2018-03-20T13:49:05.923Z,14.00
2018-03-20T13:50:37.109Z,15.30
2018-03-20T13:53:40.856Z,17.50
2018-03-20T13:55:12.903Z,15.40
2018-03-20T13:56:44.505Z,16.20
2018-03-20T13:58:16.361Z,15.70
2018-03-20T13:59:48.270Z,17.00
2018-03-20T14:02:52.232Z,16.40
2018-03-20T14:07:27.210Z,15.90
2018-03-20T14:08:59.140Z,17.10
2018-03-20T14:10:30.938Z,17.60
2018-03-20T14:12:03.200Z,17.20
2018-03-20T14:13:34.607Z,18.70
2018-03-20T14:15:07.103Z,20.50
2018-03-20T14:16:38.178Z,23.30
2018-03-20T14:18:10.006Z,21.80
2018-03-20T14:19:41.936Z,21.80
2018-03-20T14:21:13.664Z,21.90
2018-03-20T14:22:45.697Z,21.00
2018-03-20T14:25:49.453Z,23.80
2018-03-20T14:27:20.994Z,21.70
2018-03-20T14:28:52.807Z,20.50
2018-03-20T14:30:24.879Z,21.00
2018-03-20T14:31:56.468Z,20.60
2018-03-20T14:33:28.296Z,20.80
2018-03-20T14:35:00.125Z,23.40
2018-03-20T14:36:32.158Z,21.20
2018-03-20T14:38:03.880Z,23.50
2018-03-20T14:41:07.435Z,25.80
2018-03-20T14:42:39.325Z,23.20
2018-03-20T14:44:11.089Z,23.50
2018-03-20T14:45:42.916Z,23.00
2018-03-20T14:47:15.187Z,22.50
2018-03-20T14:48:46.824Z,21.30
2018-03-20T14:50:18.700Z,22.70
2018-03-20T14:51:50.535Z,20.50
2018-03-20T14:53:22.049Z,19.30
2018-03-20T14:54:53.908Z,21.40
2018-03-20T14:56:25.806Z,23.00
2018-03-20T14:57:57.528Z,21.80
2018-03-20T14:59:29.359Z,21.00
2018-03-20T15:01:01.188Z,21.60
2018-03-20T15:02:33.159Z,22.40
2018-03-20T15:04:04.840Z,25.60
2018-03-20T15:05:36.868Z,23.30
2018-03-20T15:07:08.504Z,20.10
2018-03-20T15:08:40.472Z,23.60
2018-03-20T15:10:12.679Z,25.90
2018-03-20T15:11:43.979Z,23.60
2018-03-20T15:13:15.809Z,24.20
2018-03-20T15:14:47.742Z,25.20
2018-03-20T15:16:19.460Z,22.00
2018-03-20T15:19:23.115Z,21.80
2018-03-20T15:20:54.942Z,22.50
2018-03-20T15:22:26.770Z,21.30
2018-03-20T15:23:58.600Z,20.50
2018-03-20T15:25:30.425Z,21.20
2018-03-20T15:27:02.252Z,20.70
2018-03-20T15:28:34.608Z,21.10
2018-03-20T15:30:05.906Z,18.50
2018-03-20T15:31:37.734Z,18.50
2018-03-20T15:33:09.660Z,20.60
2018-03-20T15:34:41.387Z,22.10
2018-03-20T15:36:13.215Z,20.70
2018-03-20T15:37:45.045Z,21.00
2018-03-20T15:39:16.876Z,21.30
2018-03-20T15:40:48.693Z,20.50
2018-03-20T15:42:20.520Z,21.40
2018-03-20T15:45:24.174Z,22.40
2018-03-20T15:46:55.999Z,21.70
2018-03-20T15:48:27.826Z,21.30
2018-03-20T15:49:59.650Z,20.60
2018-03-20T15:51:31.625Z,18.80
2018-03-20T15:53:03.302Z,22.70
2018-03-20T15:54:35.128Z,22.00
2018-03-20T15:56:06.957Z,19.50
2018-03-20T15:57:38.784Z,19.50
2018-03-20T15:59:10.613Z,20.40
2018-03-20T16:00:42.448Z,19.80
2018-03-20T16:02:14.278Z,18.80
2018-03-20T16:03:46.134Z,21.50
2018-03-20T16:05:17.928Z,21.40
2018-03-20T16:06:49.759Z,20.80
2018-03-20T16:08:21.589Z,20.70
2018-03-20T16:09:53.722Z,19.90
2018-03-20T16:12:57.081Z,19.00
2018-03-20T16:14:28.913Z,20.00
2018-03-20T16:16:00.848Z,20.80
2018-03-20T16:17:32.621Z,18.40
2018-03-20T16:20:36.239Z,20.60
2018-03-20T16:22:08.068Z,22.30
2018-03-20T16:23:39.900Z,22.80
2018-03-20T16:25:11.737Z,21.30
2018-03-20T16:26:43.565Z,21.20
2018-03-20T16:28:15.496Z,19.10
2018-03-20T16:29:47.959Z,21.20
2018-03-20T16:31:19.062Z,20.00
2018-03-20T16:32:50.895Z,19.50
2018-03-20T16:34:22.779Z,17.50
2018-03-20T16:35:54.561Z,20.40
2018-03-20T16:37:26.392Z,22.20
2018-03-20T16:38:58.224Z,20.40
2018-03-20T16:40:30.057Z,23.40
2018-03-20T16:43:33.737Z,20.00
2018-03-20T16:46:37.545Z,18.90
2018-03-20T16:48:09.213Z,19.50
2018-03-20T16:49:41.089Z,20.00
2018-03-20T16:51:13.101Z,21.00
2018-03-20T16:52:44.702Z,21.00
2018-03-20T16:54:16.531Z,20.70
2018-03-20T16:55:48.766Z,19.60
2018-03-20T16:57:20.192Z,18.30
2018-03-20T16:58:52.022Z,18.30
2018-03-20T17:00:23.929Z,17.40
2018-03-20T17:01:55.976Z,19.10
2018-03-20T17:03:27.703Z,20.70
2018-03-20T17:04:59.431Z,19.90
2018-03-20T17:06:31.157Z,18.30
2018-03-20T17:08:02.988Z,17.10
2018-03-20T17:09:34.810Z,18.50
2018-03-20T17:11:06.834Z,18.60
2018-03-20T17:12:38.705Z,18.00
2018-03-20T17:14:10.285Z,19.20
2018-03-20T17:15:42.121Z,17.50
2018-03-20T17:17:13.958Z,18.30
2018-03-20T17:18:45.761Z,19.60
2018-03-20T17:20:17.587Z,18.90
2018-03-20T17:21:49.412Z,18.30
2018-03-20T17:23:21.337Z,18.80
2018-03-20T17:24:53.072Z,16.70
2018-03-20T17:26:24.913Z,16.90
2018-03-20T17:27:56.840Z,18.50
2018-03-20T17:31:00.638Z,16.30
2018-03-20T17:32:32.199Z,15.90
2018-03-20T17:34:04.019Z,16.00
2018-03-20T17:35:36.346Z,15.40
2018-03-20T17:37:07.970Z,16.00
2018-03-20T17:38:39.797Z,16.70
2018-03-20T17:40:11.318Z,17.00
2018-03-20T17:41:43.142Z,17.90
2018-03-20T17:43:15.088Z,16.70
2018-03-20T17:44:46.797Z,16.10
2018-03-20T17:46:18.669Z,17.10
2018-03-20T17:47:50.442Z,16.70
2018-03-20T17:49:22.572Z,16.70
2018-03-20T17:50:54.095Z,18.90
2018-03-20T17:52:26.424Z,17.60
2018-03-20T17:53:57.748Z,18.10
2018-03-20T17:55:29.586Z,17.40
2018-03-20T17:57:01.695Z,18.80
2018-03-20T17:58:33.226Z,18.60
2018-03-20T18:00:05.620Z,20.40
2018-03-20T18:07:44.595Z,21.80
2018-03-20T18:09:16.318Z,22.80
2018-03-20T18:10:48.165Z,20.20
2018-03-20T18:12:19.855Z,19.80
2018-03-20T18:13:51.764Z,19.80
2018-03-20T18:15:24.203Z,18.40
2018-03-20T18:16:55.108Z,18.50
2018-03-20T18:18:26.940Z,19.60
2018-03-20T18:19:58.955Z,19.70
2018-03-20T18:21:30.579Z,19.90
2018-03-20T18:23:02.736Z,20.50
2018-03-20T18:26:06.160Z,24.10
2018-03-20T18:27:37.870Z,25.40
2018-03-20T18:30:41.992Z,24.40
2018-03-20T18:32:13.472Z,24.40
2018-03-20T18:33:45.161Z,22.30
2018-03-20T18:35:16.980Z,21.70
2018-03-20T18:36:48.804Z,21.10
2018-03-20T18:39:52.447Z,19.40
2018-03-20T18:41:24.573Z,20.80
2018-03-20T18:42:56.088Z,17.90
2018-03-20T18:44:27.909Z,21.30
2018-03-20T18:47:31.651Z,20.50
2018-03-20T18:49:03.371Z,17.90
2018-03-20T18:50:35.194Z,19.30
2018-03-20T18:52:07.035Z,20.60
2018-03-20T18:53:38.835Z,20.60
2018-03-20T18:55:10.658Z,19.00
2018-03-20T18:56:42.679Z,19.30
2018-03-20T18:58:14.298Z,20.00
2018-03-20T18:59:46.570Z,19.80
2018-03-20T19:01:17.939Z,18.80
2018-03-20T19:04:21.580Z,22.70
2018-03-20T19:05:53.599Z,21.50
2018-03-20T19:07:25.221Z,21.60
2018-03-20T19:08:57.040Z,22.90
2018-03-20T19:10:28.860Z,21.50
2018-03-20T19:12:00.681Z,24.50
2018-03-20T19:13:32.499Z,23.10
2018-03-20T19:15:04.320Z,21.20
2018-03-20T19:16:36.197Z,19.70
2018-03-20T19:18:08.074Z,22.10
2018-03-20T19:19:39.779Z,18.50
2018-03-20T19:21:11.600Z,22.00
2018-03-20T19:24:15.341Z,20.80
2018-03-20T19:25:47.092Z,21.10
2018-03-20T19:27:18.878Z,21.60
2018-03-20T19:28:50.700Z,22.70
2018-03-20T19:30:22.524Z,20.70
2018-03-20T19:31:54.340Z,21.30
2018-03-20T19:33:26.159Z,22.30
2018-03-20T19:34:57.989Z,22.10
2018-03-20T19:36:29.799Z,23.60
2018-03-20T19:38:01.617Z,23.60
2018-03-20T19:39:33.436Z,21.80
2018-03-20T19:41:05.327Z,26.10
2018-03-20T19:42:37.175Z,22.70
2018-03-20T19:44:08.895Z,21.90
2018-03-20T19:45:40.716Z,22.00
2018-03-20T19:47:12.535Z,20.00
2018-03-20T19:48:44.353Z,10.80
2018-03-20T19:50:16.177Z,7.80
2018-03-20T19:51:47.993Z,6.30
2018-03-20T19:53:19.810Z,5.70
2018-03-20T19:54:51.833Z,4.90
2018-03-20T19:56:23.449Z,4.30
2018-03-20T19:57:55.267Z,4.20
2018-03-20T19:59:27.085Z,4.80
2018-03-20T20:00:59.104Z,5.20
2018-03-20T20:02:30.719Z,5.80
2018-03-20T20:04:02.622Z,5.50
2018-03-20T20:05:34.409Z,4.90
2018-03-20T20:07:06.170Z,4.20
2018-03-20T20:08:37.990Z,6.20
2018-03-20T20:10:09.906Z,6.40
2018-03-20T20:11:41.622Z,5.70
2018-03-20T20:13:13.436Z,6.70
2018-03-20T20:14:45.254Z,6.00
2018-03-20T20:16:17.078Z,6.30
2018-03-20T20:17:48.885Z,6.80
2018-03-20T20:19:20.803Z,7.30
2018-03-20T20:20:53.509Z,7.10
2018-03-20T20:22:24.335Z,9.70
2018-03-20T20:23:56.149Z,8.90
2018-03-20T20:25:28.242Z,7.60
2018-03-20T20:26:59.910Z,8.80
2018-03-20T20:28:31.599Z,8.90
2018-03-20T20:30:03.416Z,9.10
2018-03-20T20:31:35.230Z,8.70
2018-03-20T20:33:07.047Z,10.40
2018-03-20T20:34:38.898Z,10.40
2018-03-20T20:36:10.804Z,9.20
2018-03-20T20:37:43.124Z,10.20
2018-03-20T20:39:14.312Z,12.90
2018-03-20T20:40:46.171Z,10.50
2018-03-20T20:42:18.095Z,10.30
2018-03-20T20:45:21.822Z,27.30
2018-03-20T20:46:53.915Z,39.10
2018-03-20T20:48:25.205Z,8.20
2018-03-20T20:49:57.021Z,15.20
2018-03-20T20:51:28.929Z,17.70